createdAt,value
2019-03-08T00:00:44.155Z,15.47
2019-03-08T00:01:49.820Z,15.35
2019-03-08T00:02:55.111Z,15.52
2019-03-08T00:04:00.687Z,15.55
2019-03-08T00:05:05.573Z,15.32
2019-03-08T00:06:11.035Z,15.16
2019-03-08T00:07:16.291Z,15.35
2019-03-08T00:08:21.604Z,15.28
2019-03-08T00:09:28.196Z,15.27
2019-03-08T00:10:33.510Z,15.59
2019-03-08T00:11:38.449Z,15.50
2019-03-08T00:12:43.985Z,15.16
2019-03-08T00:13:49.031Z,15.56
2019-03-08T00:14:54.584Z,15.15
2019-03-08T00:15:59.837Z,15.40
2019-03-08T00:17:04.644Z,15.87
2019-03-08T00:18:09.658Z,15.00
2019-03-08T00:19:14.957Z,15.53
2019-03-08T00:20:20.002Z,15.59
2019-03-08T00:21:25.340Z,15.43
2019-03-08T00:22:30.906Z,15.61
2019-03-08T00:23:36.164Z,15.59
2019-03-08T00:24:40.880Z,15.24
2019-03-08T00:25:46.199Z,15.51
2019-03-08T00:26:51.921Z,15.69
2019-03-08T00:27:56.829Z,15.45
2019-03-08T00:29:03.304Z,15.34
2019-03-08T00:30:08.618Z,15.07
2019-03-08T00:31:13.451Z,15.14
2019-03-08T00:32:18.178Z,15.55
2019-03-08T00:33:23.720Z,15.48
2019-03-08T00:34:29.127Z,15.57
2019-03-08T00:35:33.877Z,15.47
2019-03-08T00:36:39.144Z,15.44
2019-03-08T00:37:47.345Z,15.50
2019-03-08T00:38:52.306Z,15.32
2019-03-08T00:39:57.895Z,15.28
2019-03-08T00:41:02.615Z,15.56
2019-03-08T00:42:07.729Z,15.54
2019-03-08T00:43:13.061Z,15.93
2019-03-08T00:44:17.815Z,15.90
2019-03-08T00:45:23.096Z,15.48
2019-03-08T00:46:28.394Z,15.52
2019-03-08T00:47:33.119Z,15.58
2019-03-08T00:48:38.207Z,15.76
2019-03-08T00:49:43.828Z,15.38
2019-03-08T00:50:49.003Z,15.66
2019-03-08T00:51:54.082Z,15.72
2019-03-08T00:52:59.106Z,15.53
2019-03-08T00:54:04.098Z,15.41
2019-03-08T00:55:09.211Z,15.75
2019-03-08T00:56:14.243Z,15.67
2019-03-08T00:57:19.571Z,15.73
2019-03-08T00:58:25.105Z,15.66
2019-03-08T00:59:30.186Z,15.44
2019-03-08T01:00:34.872Z,15.72
2019-03-08T01:01:39.710Z,15.55
2019-03-08T01:02:44.969Z,15.77
2019-03-08T01:03:50.329Z,15.61
2019-03-08T01:04:55.851Z,15.79
2019-03-08T01:06:00.829Z,15.17
2019-03-08T01:07:05.730Z,15.17
2019-03-08T01:08:10.743Z,15.62
2019-03-08T01:09:16.012Z,15.66
2019-03-08T01:10:22.262Z,15.51
2019-03-08T01:11:28.951Z,15.22
2019-03-08T01:12:33.912Z,15.38
2019-03-08T01:13:39.342Z,15.38
2019-03-08T01:14:44.754Z,15.64
2019-03-08T01:15:49.490Z,15.39
2019-03-08T01:16:54.183Z,15.46
2019-03-08T01:17:59.248Z,15.45
2019-03-08T01:19:04.866Z,15.47
2019-03-08T01:20:10.444Z,15.26
2019-03-08T01:21:15.148Z,15.49
2019-03-08T01:22:19.841Z,15.52
2019-03-08T01:23:24.587Z,15.56
2019-03-08T01:24:29.358Z,15.51
2019-03-08T01:25:34.587Z,15.93
2019-03-08T01:26:39.289Z,16.04
2019-03-08T01:27:58.474Z,15.75
2019-03-08T01:29:03.786Z,15.94
2019-03-08T01:30:10.581Z,15.98
2019-03-08T01:31:15.321Z,15.67
2019-03-08T01:32:20.318Z,15.75
2019-03-08T01:33:25.346Z,16.19
2019-03-08T01:34:30.701Z,16.04
2019-03-08T01:35:35.661Z,15.73
2019-03-08T01:36:40.634Z,15.80
2019-03-08T01:37:45.954Z,15.86
2019-03-08T01:38:50.727Z,15.94
2019-03-08T01:39:55.811Z,16.14
2019-03-08T01:41:00.993Z,15.65
2019-03-08T01:42:05.789Z,15.78
2019-03-08T01:43:11.074Z,15.86
2019-03-08T01:44:16.047Z,15.58
2019-03-08T01:45:21.342Z,15.69
2019-03-08T01:46:26.739Z,15.76
2019-03-08T01:47:32.043Z,15.40
2019-03-08T01:48:36.761Z,15.53
2019-03-08T01:49:42.003Z,15.26
2019-03-08T01:50:47.211Z,15.66
2019-03-08T01:51:52.209Z,15.65
2019-03-08T01:52:57.263Z,15.64
2019-03-08T01:54:02.209Z,15.69
2019-03-08T01:55:07.715Z,15.36
2019-03-08T01:56:12.800Z,15.45
2019-03-08T01:57:18.392Z,15.80
2019-03-08T01:58:23.633Z,15.72
2019-03-08T01:59:28.676Z,15.20
2019-03-08T02:00:34.035Z,15.38
2019-03-08T02:01:39.465Z,15.52
2019-03-08T02:02:44.913Z,15.23
2019-03-08T02:03:50.275Z,15.71
2019-03-08T02:04:54.961Z,15.52
2019-03-08T02:06:00.315Z,15.56
2019-03-08T02:07:06.166Z,15.20
2019-03-08T02:08:11.200Z,15.45
2019-03-08T02:09:15.910Z,15.30
2019-03-08T02:10:20.477Z,15.29
2019-03-08T02:11:25.777Z,15.49
2019-03-08T02:12:30.549Z,15.72
2019-03-08T02:13:35.815Z,15.29
2019-03-08T02:14:40.866Z,15.64
2019-03-08T02:15:45.570Z,15.48
2019-03-08T02:16:50.879Z,15.38
2019-03-08T02:17:55.617Z,15.22
2019-03-08T02:19:00.973Z,15.49
2019-03-08T02:20:06.795Z,15.24
2019-03-08T02:21:12.152Z,15.81
2019-03-08T02:22:17.382Z,15.01
2019-03-08T02:23:22.652Z,15.36
2019-03-08T02:24:28.181Z,15.39
2019-03-08T02:25:33.684Z,15.36
2019-03-08T02:26:38.826Z,15.37
2019-03-08T02:27:43.546Z,15.49
2019-03-08T02:28:48.761Z,14.91
2019-03-08T02:29:53.884Z,14.89
2019-03-08T02:30:59.446Z,15.08
2019-03-08T02:32:05.169Z,14.90
2019-03-08T02:33:10.445Z,15.13
2019-03-08T02:34:15.124Z,15.37
2019-03-08T02:35:20.520Z,15.38
2019-03-08T02:36:26.191Z,15.38
2019-03-08T02:37:31.574Z,15.22
2019-03-08T02:38:36.544Z,15.67
2019-03-08T02:39:42.113Z,15.63
2019-03-08T02:40:47.097Z,15.18
2019-03-08T02:41:52.072Z,15.52
2019-03-08T02:42:57.062Z,15.77
2019-03-08T02:44:02.514Z,15.52
2019-03-08T02:45:07.320Z,15.43
2019-03-08T02:46:12.998Z,15.55
2019-03-08T02:47:18.417Z,15.53
2019-03-08T02:48:23.703Z,15.49
2019-03-08T02:49:28.484Z,15.45
2019-03-08T02:50:33.812Z,15.68
2019-03-08T02:51:38.785Z,15.39
2019-03-08T02:52:44.302Z,15.79
2019-03-08T02:53:49.617Z,15.54
2019-03-08T02:54:54.756Z,15.53
2019-03-08T02:55:59.646Z,15.15
2019-03-08T02:57:04.682Z,15.17
2019-03-08T02:58:10.084Z,15.19
2019-03-08T02:59:15.067Z,15.54
2019-03-08T03:00:19.962Z,15.49
2019-03-08T03:01:24.732Z,15.39
2019-03-08T03:02:30.139Z,15.70
2019-03-08T03:03:35.410Z,15.65
2019-03-08T03:04:40.593Z,15.80
2019-03-08T03:05:45.615Z,16.05
2019-03-08T03:06:50.378Z,15.37
2019-03-08T03:07:55.801Z,15.71
2019-03-08T03:09:00.976Z,15.67
2019-03-08T03:10:06.497Z,15.32
2019-03-08T03:11:11.838Z,15.70
2019-03-08T03:12:17.401Z,15.52
2019-03-08T03:13:22.539Z,15.31
2019-03-08T03:14:27.864Z,15.44
2019-03-08T03:15:33.120Z,15.80
2019-03-08T03:16:38.394Z,15.57
2019-03-08T03:17:43.745Z,15.40
2019-03-08T03:18:49.127Z,15.16
2019-03-08T03:19:54.493Z,15.39
2019-03-08T03:20:59.581Z,15.16
2019-03-08T03:22:04.300Z,15.33
2019-03-08T03:23:09.599Z,15.54
2019-03-08T03:24:15.222Z,15.46
2019-03-08T03:25:21.087Z,15.69
2019-03-08T03:26:26.329Z,15.16
2019-03-08T03:27:31.215Z,15.02
2019-03-08T03:28:36.476Z,15.68
2019-03-08T03:29:41.747Z,15.56
2019-03-08T03:30:46.795Z,15.69
2019-03-08T03:31:52.234Z,15.79
2019-03-08T03:32:57.531Z,15.02
2019-03-08T03:34:02.802Z,15.33
2019-03-08T03:35:07.884Z,15.45
2019-03-08T03:36:12.894Z,15.64
2019-03-08T03:37:18.073Z,15.43
2019-03-08T03:38:22.815Z,15.81
2019-03-08T03:39:28.147Z,15.79
2019-03-08T03:40:32.833Z,15.91
2019-03-08T03:41:38.188Z,15.61
2019-03-08T03:42:43.281Z,15.39
2019-03-08T03:43:48.664Z,15.58
2019-03-08T03:44:53.365Z,15.61
2019-03-08T03:45:58.717Z,15.76
2019-03-08T03:47:03.215Z,15.56
2019-03-08T03:48:08.186Z,15.45
2019-03-08T03:49:13.572Z,15.72
2019-03-08T03:50:18.941Z,15.76
2019-03-08T03:51:23.892Z,15.79
2019-03-08T03:52:28.698Z,15.88
2019-03-08T03:53:33.852Z,15.47
2019-03-08T03:54:39.271Z,15.20
2019-03-08T03:55:43.811Z,15.22
2019-03-08T03:56:48.795Z,15.33
2019-03-08T03:57:53.536Z,15.35
2019-03-08T03:58:58.798Z,15.73
2019-03-08T04:00:04.137Z,15.63
2019-03-08T04:01:24.048Z,15.55
2019-03-08T04:02:29.551Z,15.33
2019-03-08T04:03:34.797Z,15.40
2019-03-08T04:04:39.876Z,15.32
2019-03-08T04:05:44.552Z,14.99
2019-03-08T04:06:49.274Z,15.32
2019-03-08T04:07:54.262Z,15.09
2019-03-08T04:08:59.568Z,15.40
2019-03-08T04:10:04.725Z,15.55
2019-03-08T04:11:09.723Z,15.74
2019-03-08T04:12:14.752Z,15.13
2019-03-08T04:13:19.286Z,15.35
2019-03-08T04:14:24.260Z,15.28
2019-03-08T04:15:29.686Z,15.41
2019-03-08T04:16:34.874Z,15.06
2019-03-08T04:17:39.979Z,15.08
2019-03-08T04:18:44.739Z,15.16
2019-03-08T04:19:50.094Z,15.25
2019-03-08T04:20:54.975Z,15.28
2019-03-08T04:22:00.119Z,14.93
2019-03-08T04:23:05.224Z,15.08
2019-03-08T04:24:10.122Z,15.34
2019-03-08T04:25:15.108Z,15.26
2019-03-08T04:26:20.127Z,15.23
2019-03-08T04:27:25.161Z,15.14
2019-03-08T04:28:30.903Z,15.07
2019-03-08T04:29:36.272Z,15.28
2019-03-08T04:30:42.010Z,15.11
2019-03-08T04:31:47.619Z,15.02
2019-03-08T04:32:53.287Z,14.77
2019-03-08T04:33:58.443Z,14.84
2019-03-08T04:35:03.168Z,14.91
2019-03-08T04:36:08.176Z,15.00
2019-03-08T04:37:14.052Z,15.06
2019-03-08T04:38:19.373Z,15.04
2019-03-08T04:39:24.810Z,14.65
2019-03-08T04:40:30.035Z,14.96
2019-03-08T04:41:35.398Z,14.96
2019-03-08T04:42:40.454Z,15.03
2019-03-08T04:43:45.759Z,15.28
2019-03-08T04:44:51.142Z,14.96
2019-03-08T04:45:56.485Z,15.16
2019-03-08T04:47:01.481Z,15.13
2019-03-08T04:48:06.218Z,14.90
2019-03-08T04:49:11.612Z,15.09
2019-03-08T04:50:16.343Z,14.76
2019-03-08T04:51:21.964Z,14.50
2019-03-08T04:52:27.245Z,14.64
2019-03-08T04:53:32.479Z,14.65
2019-03-08T04:54:37.824Z,14.58
2019-03-08T04:55:43.509Z,14.85
2019-03-08T04:56:48.784Z,14.79
2019-03-08T04:57:54.107Z,14.86
2019-03-08T04:58:59.343Z,14.78
2019-03-08T05:00:04.544Z,14.85
2019-03-08T05:01:09.854Z,14.97
2019-03-08T05:02:15.223Z,14.79
2019-03-08T05:03:20.232Z,14.56
2019-03-08T05:04:25.401Z,15.00
2019-03-08T05:05:30.741Z,15.10
2019-03-08T05:06:36.012Z,15.14
2019-03-08T05:07:41.454Z,15.01
2019-03-08T05:08:46.906Z,14.94
2019-03-08T05:09:52.493Z,14.70
2019-03-08T05:10:57.837Z,15.01
2019-03-08T05:12:02.903Z,15.06
2019-03-08T05:13:08.104Z,14.60
2019-03-08T05:14:13.568Z,14.93
2019-03-08T05:15:19.406Z,14.89
2019-03-08T05:16:24.568Z,14.60
2019-03-08T05:17:30.211Z,14.67
2019-03-08T05:18:35.510Z,14.83
2019-03-08T05:19:40.688Z,14.55
2019-03-08T05:20:46.091Z,14.78
2019-03-08T05:21:51.066Z,14.79
2019-03-08T05:22:56.729Z,14.76
2019-03-08T05:24:02.336Z,14.96
2019-03-08T05:25:07.551Z,15.03
2019-03-08T05:26:15.518Z,14.87
2019-03-08T05:27:20.729Z,14.83
2019-03-08T05:28:26.777Z,14.45
2019-03-08T05:29:31.729Z,14.91
2019-03-08T05:30:37.145Z,15.03
2019-03-08T05:31:41.925Z,14.92
2019-03-08T05:32:47.045Z,15.09
2019-03-08T05:33:52.009Z,15.06
2019-03-08T05:34:57.001Z,14.89
2019-03-08T05:36:02.037Z,14.86
2019-03-08T05:37:07.138Z,14.77
2019-03-08T05:38:12.458Z,14.90
2019-03-08T05:39:17.800Z,14.89
2019-03-08T05:40:23.373Z,14.41
2019-03-08T05:41:28.997Z,14.71
2019-03-08T05:42:34.107Z,14.92
2019-03-08T05:43:39.671Z,15.17
2019-03-08T05:44:44.944Z,14.96
2019-03-08T05:45:49.937Z,15.18
2019-03-08T05:46:54.905Z,15.11
2019-03-08T05:48:00.361Z,14.66
2019-03-08T05:49:05.190Z,14.89
2019-03-08T05:50:10.507Z,14.89
2019-03-08T05:51:15.614Z,15.01
2019-03-08T05:52:20.856Z,15.15
2019-03-08T05:53:26.173Z,15.01
2019-03-08T05:54:31.289Z,14.91
2019-03-08T05:55:36.565Z,15.06
2019-03-08T05:56:41.698Z,14.93
2019-03-08T05:57:46.656Z,14.89
2019-03-08T05:58:51.884Z,14.99
2019-03-08T05:59:57.433Z,15.11
2019-03-08T06:01:02.399Z,14.94
2019-03-08T06:02:07.456Z,14.77
2019-03-08T06:03:12.191Z,15.10
2019-03-08T06:04:17.167Z,15.09
2019-03-08T06:05:21.909Z,15.09
2019-03-08T06:06:27.361Z,15.21
2019-03-08T06:07:32.447Z,15.10
2019-03-08T06:08:37.137Z,15.00
2019-03-08T06:09:42.462Z,14.85
2019-03-08T06:10:48.200Z,14.77
2019-03-08T06:11:54.898Z,14.79
2019-03-08T06:12:59.978Z,14.75
2019-03-08T06:14:04.753Z,14.92
2019-03-08T06:15:09.474Z,15.07
2019-03-08T06:16:14.219Z,15.18
2019-03-08T06:17:19.567Z,15.33
2019-03-08T06:18:24.295Z,15.35
2019-03-08T06:19:29.312Z,15.11
2019-03-08T06:20:34.874Z,15.23
2019-03-08T06:21:39.874Z,15.09
2019-03-08T06:22:44.822Z,15.26
2019-03-08T06:23:49.909Z,15.25
2019-03-08T06:24:55.280Z,15.18
2019-03-08T06:26:00.583Z,14.71
2019-03-08T06:27:06.007Z,14.89
2019-03-08T06:28:10.690Z,15.04
2019-03-08T06:29:15.726Z,14.92
2019-03-08T06:30:21.397Z,15.11
2019-03-08T06:31:26.879Z,15.15
2019-03-08T06:32:32.019Z,14.98
2019-03-08T06:33:36.699Z,15.20
2019-03-08T06:34:42.255Z,15.23
2019-03-08T06:35:46.972Z,15.25
2019-03-08T06:36:52.222Z,15.17
2019-03-08T06:37:57.250Z,15.12
2019-03-08T06:39:01.757Z,15.45
2019-03-08T06:40:06.897Z,15.12
2019-03-08T06:41:12.520Z,15.01
2019-03-08T06:42:18.249Z,15.38
2019-03-08T06:43:23.503Z,15.34
2019-03-08T06:44:29.071Z,15.56
2019-03-08T06:45:34.407Z,15.41
2019-03-08T06:46:39.382Z,15.68
2019-03-08T06:47:44.514Z,15.14
2019-03-08T06:48:49.532Z,15.56
2019-03-08T06:49:54.769Z,15.33
2019-03-08T06:50:59.660Z,15.31
2019-03-08T06:52:04.563Z,15.18
2019-03-08T06:53:09.319Z,15.38
2019-03-08T06:54:14.359Z,15.67
2019-03-08T06:55:19.379Z,15.59
2019-03-08T06:56:24.339Z,15.58
2019-03-08T06:57:29.023Z,15.68
2019-03-08T06:58:48.311Z,15.62
2019-03-08T07:00:12.465Z,15.82
2019-03-08T07:01:23.852Z,15.50
2019-03-08T07:02:30.206Z,15.64
2019-03-08T07:03:35.447Z,15.29
2019-03-08T07:04:42.645Z,15.50
2019-03-08T07:05:47.375Z,15.72
2019-03-08T07:06:52.450Z,15.79
2019-03-08T07:07:57.136Z,15.56
2019-03-08T07:09:01.813Z,15.75
2019-03-08T07:10:06.522Z,15.39
2019-03-08T07:11:11.443Z,15.27
2019-03-08T07:12:16.760Z,15.17
2019-03-08T07:13:22.047Z,14.95
2019-03-08T07:14:27.282Z,15.10
2019-03-08T07:15:32.288Z,15.34
2019-03-08T07:16:37.954Z,15.56
2019-03-08T07:17:42.948Z,15.59
2019-03-08T07:18:48.305Z,15.45
2019-03-08T07:20:10.660Z,15.57
2019-03-08T07:21:26.060Z,15.57
2019-03-08T07:22:53.043Z,15.79
2019-03-08T07:24:12.286Z,15.08
2019-03-08T07:25:51.808Z,15.43
2019-03-08T07:27:17.133Z,15.72
2019-03-08T07:28:46.770Z,15.94
2019-03-08T07:30:09.690Z,15.95
2019-03-08T07:31:21.890Z,15.79
2019-03-08T07:32:58.302Z,15.75
2019-03-08T07:34:21.164Z,15.84
2019-03-08T07:35:33.617Z,15.61
2019-03-08T07:36:56.694Z,16.02
2019-03-08T07:38:38.981Z,16.20
2019-03-08T07:40:02.600Z,15.65
2019-03-08T07:41:24.789Z,15.55
2019-03-08T07:42:58.178Z,16.05
2019-03-08T07:44:17.126Z,15.89
2019-03-08T07:45:53.316Z,16.12
2019-03-08T07:47:35.628Z,16.35
2019-03-08T07:49:11.572Z,16.15
2019-03-08T07:50:38.191Z,15.68
2019-03-08T07:52:07.963Z,16.03
2019-03-08T07:53:20.046Z,16.05
2019-03-08T07:54:31.919Z,16.01
2019-03-08T07:55:46.621Z,15.99
2019-03-08T07:57:13.239Z,15.64
2019-03-08T07:58:36.659Z,15.68
2019-03-08T07:59:59.717Z,15.76
2019-03-08T08:01:26.929Z,15.91
2019-03-08T08:02:40.176Z,16.13
2019-03-08T08:04:06.887Z,16.37
2019-03-08T08:05:22.807Z,16.32
2019-03-08T08:06:46.132Z,16.00
2019-03-08T08:08:09.458Z,16.44
2019-03-08T08:09:45.419Z,16.20
2019-03-08T08:11:01.296Z,16.16
2019-03-08T08:12:30.895Z,15.53
2019-03-08T08:13:42.321Z,15.58
2019-03-08T08:15:18.314Z,15.88
2019-03-08T08:16:48.098Z,15.43
2019-03-08T08:18:20.122Z,15.83
2019-03-08T08:19:34.690Z,16.33
2019-03-08T08:20:58.012Z,16.20
2019-03-08T08:22:27.732Z,16.03
2019-03-08T08:23:47.907Z,16.08
2019-03-08T08:25:00.433Z,16.01
2019-03-08T08:26:20.212Z,16.14
2019-03-08T08:27:31.229Z,15.85
2019-03-08T08:28:55.979Z,16.21
2019-03-08T08:30:24.406Z,16.21
2019-03-08T08:31:44.344Z,16.28
2019-03-08T08:33:17.601Z,16.54
2019-03-08T08:34:40.321Z,16.36
2019-03-08T08:36:04.373Z,16.71
2019-03-08T08:37:28.293Z,16.77
2019-03-08T08:39:04.163Z,16.39
2019-03-08T08:40:17.202Z,16.34
2019-03-08T08:41:50.033Z,16.45
2019-03-08T08:43:04.746Z,16.30
2019-03-08T08:44:34.627Z,16.15
2019-03-08T08:45:57.065Z,16.34
2019-03-08T08:47:12.602Z,16.95
2019-03-08T08:48:51.434Z,16.48
2019-03-08T08:50:14.826Z,16.52
2019-03-08T08:51:53.819Z,16.91
2019-03-08T08:53:12.781Z,16.51
2019-03-08T08:54:45.402Z,16.65
2019-03-08T08:56:08.139Z,16.67
2019-03-08T08:57:38.309Z,16.65
2019-03-08T08:59:02.132Z,16.96
2019-03-08T09:00:30.917Z,16.88
2019-03-08T09:01:57.634Z,16.40
2019-03-08T09:03:24.554Z,16.17
2019-03-08T09:04:51.591Z,16.35
2019-03-08T09:06:27.620Z,16.87
2019-03-08T09:07:49.999Z,16.72
2019-03-08T09:09:06.084Z,17.26
2019-03-08T09:10:40.669Z,17.36
2019-03-08T09:12:13.863Z,17.70
2019-03-08T09:13:37.461Z,18.04
2019-03-08T09:15:00.303Z,18.44
2019-03-08T09:16:33.078Z,18.76
2019-03-08T09:18:02.889Z,18.36
2019-03-08T09:19:23.962Z,19.39
2019-03-08T09:20:49.946Z,20.17
2019-03-08T09:22:23.280Z,20.31
2019-03-08T09:23:48.573Z,21.82
2019-03-08T09:25:18.271Z,24.26
2019-03-08T09:26:41.118Z,24.56
2019-03-08T09:28:01.797Z,25.06
2019-03-08T09:29:31.313Z,24.51
2019-03-08T09:31:00.916Z,22.18
2019-03-08T09:32:24.275Z,21.80
2019-03-08T09:33:48.132Z,27.59
2019-03-08T09:35:04.031Z,29.99
2019-03-08T09:36:30.748Z,24.57
2019-03-08T09:37:45.336Z,21.26
2019-03-08T09:39:09.218Z,20.23
2019-03-08T09:40:31.674Z,24.84
2019-03-08T09:41:57.849Z,29.60
2019-03-08T09:43:13.546Z,31.17
2019-03-08T09:44:50.129Z,33.03
2019-03-08T09:46:12.657Z,33.83
2019-03-08T09:47:28.505Z,34.65
2019-03-08T09:48:51.112Z,33.25
2019-03-08T09:50:14.998Z,34.14
2019-03-08T09:51:41.692Z,35.81
2019-03-08T09:52:58.071Z,34.66
2019-03-08T09:54:14.215Z,34.66
2019-03-08T09:55:32.205Z,34.74
2019-03-08T09:56:46.804Z,34.83
2019-03-08T09:58:28.998Z,34.93
2019-03-08T09:59:45.880Z,30.37
2019-03-08T10:01:18.377Z,25.98
2019-03-08T10:02:57.494Z,24.27
2019-03-08T10:04:08.148Z,21.98
2019-03-08T10:05:23.683Z,22.28
2019-03-08T10:06:47.228Z,21.78
2019-03-08T10:08:07.460Z,21.24
2019-03-08T10:09:41.430Z,20.45
2019-03-08T10:11:10.208Z,20.45
2019-03-08T10:12:33.016Z,20.12
2019-03-08T10:13:57.182Z,20.02
2019-03-08T10:15:24.182Z,19.70
2019-03-08T10:16:34.232Z,18.98
2019-03-08T10:17:56.865Z,19.23
2019-03-08T10:19:20.868Z,18.65
2019-03-08T10:20:40.767Z,18.58
2019-03-08T10:22:03.423Z,18.93
2019-03-08T10:23:20.153Z,18.39
2019-03-08T10:24:31.193Z,18.61
2019-03-08T10:25:47.410Z,18.26
2019-03-08T10:27:37.763Z,17.94
2019-03-08T10:28:55.102Z,17.48
2019-03-08T10:30:05.509Z,17.84
2019-03-08T10:31:29.057Z,18.16
2019-03-08T10:32:52.616Z,17.92
2019-03-08T10:34:16.445Z,18.36
2019-03-08T10:35:37.752Z,17.97
2019-03-08T10:36:50.372Z,17.78
2019-03-08T10:38:22.516Z,17.69
2019-03-08T10:39:42.126Z,17.59
2019-03-08T10:40:55.909Z,18.22
2019-03-08T10:42:23.554Z,18.37
2019-03-08T10:43:45.636Z,18.59
2019-03-08T10:45:25.011Z,17.90
2019-03-08T10:46:47.814Z,17.37
2019-03-08T10:48:14.070Z,17.77
2019-03-08T10:49:28.513Z,18.17
2019-03-08T10:50:38.216Z,18.53
2019-03-08T10:51:49.541Z,18.03
2019-03-08T10:53:12.054Z,17.60
2019-03-08T10:54:48.047Z,17.54
2019-03-08T10:56:12.664Z,17.71
2019-03-08T10:57:28.944Z,18.04
2019-03-08T10:58:59.413Z,18.31
2019-03-08T11:00:21.092Z,18.13
2019-03-08T11:01:54.318Z,17.98
2019-03-08T11:03:30.851Z,18.24
2019-03-08T11:05:03.260Z,18.31
2019-03-08T11:06:30.038Z,17.62
2019-03-08T11:07:59.618Z,17.87
2019-03-08T11:09:16.402Z,18.56
2019-03-08T11:10:51.911Z,19.25
2019-03-08T11:12:15.765Z,19.07
2019-03-08T11:13:57.097Z,19.38
2019-03-08T11:15:24.415Z,19.96
2019-03-08T11:16:46.544Z,19.34
2019-03-08T11:17:56.566Z,20.53
2019-03-08T11:19:23.152Z,20.93
2019-03-08T11:20:49.554Z,20.82
2019-03-08T11:22:11.939Z,20.39
2019-03-08T11:23:34.684Z,20.53
2019-03-08T11:25:10.606Z,20.66
2019-03-08T11:26:33.143Z,21.16
2019-03-08T11:28:09.420Z,21.74
2019-03-08T11:29:39.474Z,21.40
2019-03-08T11:31:03.101Z,21.35
2019-03-08T11:32:26.052Z,21.46
2019-03-08T11:33:45.313Z,22.17
2019-03-08T11:35:24.285Z,22.00
2019-03-08T11:36:51.435Z,20.75
2019-03-08T11:38:04.393Z,21.91
2019-03-08T11:39:27.935Z,22.62
2019-03-08T11:40:55.538Z,22.64
2019-03-08T11:42:06.871Z,22.50
2019-03-08T11:43:30.801Z,22.81
2019-03-08T11:44:56.923Z,22.22
2019-03-08T11:46:24.357Z,22.56
2019-03-08T11:47:47.934Z,22.32
2019-03-08T11:49:20.785Z,23.07
2019-03-08T11:50:47.816Z,23.85
2019-03-08T11:52:00.690Z,26.11
2019-03-08T11:53:27.620Z,28.23
2019-03-08T11:54:50.387Z,31.75
2019-03-08T11:56:17.056Z,32.59
2019-03-08T11:57:32.274Z,33.30
2019-03-08T11:58:51.124Z,30.71
2019-03-08T12:00:23.479Z,26.57
2019-03-08T12:01:45.817Z,27.02
2019-03-08T12:03:01.699Z,28.48
2019-03-08T12:04:43.807Z,28.69
2019-03-08T12:06:06.834Z,27.99
2019-03-08T12:07:30.445Z,26.12
2019-03-08T12:08:57.218Z,26.54
2019-03-08T12:10:14.566Z,24.86
2019-03-08T12:11:53.881Z,24.51
2019-03-08T12:13:09.272Z,24.13
2019-03-08T12:14:45.045Z,24.56
2019-03-08T12:16:23.726Z,25.08
2019-03-08T12:17:38.144Z,24.41
2019-03-08T12:18:52.889Z,24.57
2019-03-08T12:20:19.540Z,24.41
2019-03-08T12:22:01.969Z,24.67
2019-03-08T12:23:12.883Z,24.54
2019-03-08T12:24:23.643Z,24.34
2019-03-08T12:25:41.032Z,24.65
2019-03-08T12:27:04.750Z,23.84
2019-03-08T12:28:28.542Z,24.62
2019-03-08T12:29:39.339Z,25.11
2019-03-08T12:31:18.416Z,23.77
2019-03-08T12:32:42.239Z,23.04
2019-03-08T12:34:18.680Z,23.39
2019-03-08T12:35:48.306Z,22.50
2019-03-08T12:37:01.849Z,22.80
2019-03-08T12:38:28.169Z,21.83
2019-03-08T12:39:54.748Z,21.77
2019-03-08T12:41:09.095Z,20.99
2019-03-08T12:42:24.633Z,21.76
2019-03-08T12:43:47.635Z,21.44
2019-03-08T12:45:17.633Z,20.53
2019-03-08T12:46:50.174Z,20.81
2019-03-08T12:48:01.380Z,20.45
2019-03-08T12:49:33.730Z,20.20
2019-03-08T12:50:55.292Z,20.06
2019-03-08T12:52:18.207Z,19.82
2019-03-08T12:53:39.467Z,19.35
2019-03-08T12:54:54.446Z,19.30
2019-03-08T12:56:14.586Z,19.30
2019-03-08T12:57:46.635Z,19.23
2019-03-08T12:59:07.455Z,19.23
2019-03-08T13:00:41.697Z,19.08
2019-03-08T13:02:11.225Z,19.45
2019-03-08T13:03:41.510Z,18.91
2019-03-08T13:05:05.162Z,18.54
2019-03-08T13:06:25.839Z,18.82
2019-03-08T13:07:49.011Z,18.79
2019-03-08T13:09:12.661Z,17.68
2019-03-08T13:10:17.141Z,18.40
2019-03-08T13:11:22.406Z,18.59
2019-03-08T13:12:27.946Z,18.81
2019-03-08T13:13:32.957Z,18.36
2019-03-08T13:14:37.640Z,19.02
2019-03-08T13:15:42.645Z,18.79
2019-03-08T13:16:47.370Z,18.97
2019-03-08T13:17:52.474Z,19.05
2019-03-08T13:18:57.818Z,19.24
2019-03-08T13:20:02.504Z,19.18
2019-03-08T13:21:07.756Z,19.09
2019-03-08T13:22:13.046Z,19.18
2019-03-08T13:23:17.744Z,19.52
2019-03-08T13:24:22.944Z,19.82
2019-03-08T13:25:28.503Z,19.54
2019-03-08T13:26:34.154Z,19.91
2019-03-08T13:27:39.418Z,19.80
2019-03-08T13:28:44.674Z,18.74
2019-03-08T13:29:49.528Z,19.53
2019-03-08T13:30:54.306Z,19.25
2019-03-08T13:31:59.192Z,19.40
2019-03-08T13:33:04.602Z,18.72
2019-03-08T13:34:09.346Z,19.15
2019-03-08T13:35:14.447Z,19.76
2019-03-08T13:36:19.831Z,19.36
2019-03-08T13:37:24.834Z,19.47
2019-03-08T13:38:32.128Z,19.31
2019-03-08T13:39:37.465Z,19.05
2019-03-08T13:40:42.165Z,19.25
2019-03-08T13:41:47.223Z,19.18
2019-03-08T13:42:52.443Z,19.21
2019-03-08T13:43:57.520Z,19.86
2019-03-08T13:45:02.597Z,19.33
2019-03-08T13:46:07.569Z,18.84
2019-03-08T13:47:12.807Z,18.20
2019-03-08T13:48:17.951Z,18.70
2019-03-08T13:49:23.417Z,18.99
2019-03-08T13:50:28.086Z,18.60
2019-03-08T13:51:33.333Z,18.59
2019-03-08T13:52:38.298Z,18.49
2019-03-08T13:53:43.722Z,18.65
2019-03-08T13:54:48.906Z,19.03
2019-03-08T13:55:53.866Z,19.23
2019-03-08T13:56:59.144Z,19.30
2019-03-08T13:58:03.925Z,18.39
2019-03-08T13:59:08.717Z,18.46
2019-03-08T14:00:15.280Z,18.31
2019-03-08T14:01:20.253Z,18.66
2019-03-08T14:02:25.812Z,18.87
2019-03-08T14:03:31.034Z,19.09
2019-03-08T14:04:35.485Z,19.25
2019-03-08T14:05:40.472Z,19.11
2019-03-08T14:06:46.452Z,19.42
2019-03-08T14:07:51.005Z,19.15
2019-03-08T14:08:56.006Z,19.13
2019-03-08T14:10:01.051Z,19.01
2019-03-08T14:11:06.064Z,18.92
2019-03-08T14:12:11.098Z,18.74
2019-03-08T14:13:15.781Z,19.04
2019-03-08T14:14:20.776Z,19.18
2019-03-08T14:15:26.061Z,19.30
2019-03-08T14:16:31.352Z,19.43
2019-03-08T14:17:36.152Z,19.26
2019-03-08T14:18:41.174Z,19.07
2019-03-08T14:19:48.701Z,18.86
2019-03-08T14:20:53.415Z,19.04
2019-03-08T14:21:58.697Z,19.46
2019-03-08T14:23:03.432Z,19.30
2019-03-08T14:24:08.945Z,19.66
2019-03-08T14:25:13.830Z,19.38
2019-03-08T14:26:18.236Z,19.29
2019-03-08T14:27:23.260Z,19.18
2019-03-08T14:28:27.951Z,19.35
2019-03-08T14:29:33.209Z,19.59
2019-03-08T14:30:43.820Z,19.35
2019-03-08T14:31:58.212Z,19.25
2019-03-08T14:33:03.139Z,19.41
2019-03-08T14:34:10.805Z,19.60
2019-03-08T14:35:14.442Z,19.26
2019-03-08T14:36:19.469Z,18.81
2019-03-08T14:37:24.243Z,19.12
2019-03-08T14:38:36.889Z,19.52
2019-03-08T14:39:44.362Z,18.98
2019-03-08T14:40:57.489Z,18.68
2019-03-08T14:42:15.610Z,18.88
2019-03-08T14:43:26.310Z,19.22
2019-03-08T14:44:52.987Z,18.98
2019-03-08T14:46:05.721Z,19.67
2019-03-08T14:47:15.297Z,18.96
2019-03-08T14:48:20.563Z,19.46
2019-03-08T14:49:25.268Z,19.31
2019-03-08T14:50:35.387Z,19.57
2019-03-08T14:51:40.660Z,19.46
2019-03-08T14:52:46.163Z,19.36
2019-03-08T14:53:51.199Z,19.53
2019-03-08T14:54:55.910Z,19.54
2019-03-08T14:56:07.080Z,19.46
2019-03-08T14:57:13.131Z,19.30
2019-03-08T14:58:18.204Z,18.98
2019-03-08T14:59:23.777Z,18.83
2019-03-08T15:00:30.113Z,18.86
2019-03-08T15:01:35.735Z,18.81
2019-03-08T15:02:40.722Z,19.10
2019-03-08T15:03:46.162Z,19.01
2019-03-08T15:04:51.534Z,19.20
2019-03-08T15:05:59.195Z,19.53
2019-03-08T15:07:04.580Z,19.55
2019-03-08T15:08:13.728Z,19.59
2019-03-08T15:09:16.167Z,19.43
2019-03-08T15:10:21.487Z,19.55
2019-03-08T15:11:26.946Z,19.24
2019-03-08T15:12:33.056Z,19.43
2019-03-08T15:13:38.490Z,19.76
2019-03-08T15:14:46.311Z,19.24
2019-03-08T15:15:51.624Z,18.86
2019-03-08T15:16:56.320Z,19.36
2019-03-08T15:18:02.433Z,19.58
2019-03-08T15:19:10.538Z,19.75
2019-03-08T15:20:17.325Z,19.06
2019-03-08T15:21:22.666Z,18.86
2019-03-08T15:22:27.916Z,19.26